Port Charlotte, FL (33949)

10:25 AM EDT on October 22, 2014 (GMT -0400)
KFLPORTC21 | Change Station
CLOSE
Current Station
Personal Weather Station
Location: Port Charlotte, FL
Elevation: 13 ft
Nearby Weather Stations

Elev 13 ft 26.99 °N, 82.07 °W | Updated 8 seconds ago

Mostly Cloudy
Mostly Cloudy
72.7 °F
Feels Like 72.7 °F
N
0.0
Wind Variable Wind from NNW
Gusts 0.0 mph

Today
High -- | Low -- °F
--% Chance of Precip.
Yesterday
High -- | Low -- °F
Precip. -- in
7:31 AM 6:53 PM
Waning Crescent, 2% visible
Pressure 30.01 in
Visibility 7.0 miles
Clouds Mostly Cloudy 300 ft
Dew Point 72 °F
Humidity 98%
Rainfall 0.00 in
Snow Depth Not available.
UV 2 out of 12
Pollen 6.70 out of 12
Air Quality Not available.
Flu Activity Local Activity
METAR KPGD 221353Z 04005KT 7SM BKN003 23/22 A3001 RMK AO2 SLP162 T02280217

More Conditions Fewer Conditions

Pressure 30.01 in
Visibility 7.0 miles
Clouds Mostly Cloudy 300 ft
Dew Point 72 °F
Humidity 98%
Rainfall 0.00 in
Snow Depth Not available.
UV 2 out of 12
Pollen 6.70 out of 12
Air Quality Not available.
Flu Activity Local Activity
METAR KPGD 221353Z 04005KT 7SM BKN003 23/22 A3001 RMK AO2 SLP162 T02280217

More Conditions Fewer Conditions

10-Day Weather Forecast

Almanac

Astronomy

Oct. 22, 2014 Rise Set
Actual Time 7:31 AM EDT 6:53 PM EDT
Civil Twilight 7:08 AM EDT 7:16 PM EDT
Nautical Twilight 6:41 AM EDT 7:44 PM EDT
Astronomical Twilight 6:14 AM EDT 8:11 PM EDT
Moon 6:19 AM EDT 6:14 PM EDT
Length of Visible Light 12h 08m
Length of Day
11h 21m
Tomorrow will be 1m 29s shorter.
Waning Crescent, 2% of the Moon is Illuminated
Today
Waning Crescent
Oct 23
New
Oct 30
First Quarter
Nov 6
Full
Nov 14
Last Quarter

Today's Extremes

State Highs State Lows

Community

WunderPhotos

Upload Photos

1,763,927 photos uploaded!

WunderBlogs® & News

Nearby

Snow Depth

Station Depth Elevation
No new snow has been reported.

Earthquake Activity

City Distance Mag. Time & Date
No recent earthquake activity has been reported nearby.
Minimum magnitude displayed is 2.5.

Coastal Water Temperatures

Place Temperature
No Stations Reporting

Nearby Weather Stations